Time;durP1;ratioP1;P1;durP2;ratioP2;P2;SDS_P1;SDS_P2;PMS_P1;PMS_P2;Temp;Humidity;BMP_temperature;BMP_pressure;BME280_temperature;BME280_humidity;BME280_pressure;Samples;Min_cycle;Max_cycle;Signal;HPM_P1;HPM_P2
2024/04/09 00:00:21;;;;;;;11.70;11.40;;;;;;;;;;5356135;26;20591;-69
2024/04/09 00:02:50;;;;;;;12.40;12.10;;;;;;;;;;5359729;26;21137;-69
2024/04/09 00:05:19;;;;;;;12.00;11.70;;;;;;;;;;5359841;26;20498;-69
2024/04/09 00:07:48;;;;;;;11.93;11.63;;;;;;;;;;5358610;26;20469;-70
2024/04/09 00:10:15;;;;;;;11.97;11.67;;;;;;;;;;5360118;26;20597;-69
2024/04/09 00:12:45;;;;;;;12.70;12.37;;;;;;;;;;5360069;26;20472;-68
2024/04/09 00:15:12;;;;;;;12.27;11.97;;;;;;;;;;5359466;26;20538;-69
2024/04/09 00:17:44;;;;;;;12.17;11.87;;;;;;;;;;5360065;26;20494;-69
2024/04/09 00:20:11;;;;;;;12.50;12.20;;;;;;;;;;5358008;26;20549;-70
2024/04/09 00:22:42;;;;;;;11.83;11.53;;;;;;;;;;5356583;26;20469;-70
2024/04/09 00:25:12;;;;;;;12.47;12.17;;;;;;;;;;5358236;26;20535;-69
2024/04/09 00:27:41;;;;;;;12.27;11.97;;;;;;;;;;5360203;26;20478;-70
2024/04/09 00:30:08;;;;;;;12.33;12.03;;;;;;;;;;5359321;26;20534;-68
2024/04/09 00:32:36;;;;;;;12.00;11.70;;;;;;;;;;5360772;26;20777;-70
2024/04/09 00:35:03;;;;;;;12.17;11.87;;;;;;;;;;5358152;26;21110;-70
2024/04/09 00:37:35;;;;;;;12.00;11.70;;;;;;;;;;5358068;26;20530;-68
2024/04/09 00:40:09;;;;;;;12.07;11.77;;;;;;;;;;5357963;26;20477;-70
2024/04/09 00:42:38;;;;;;;12.00;11.70;;;;;;;;;;5357599;26;20882;-70
2024/04/09 00:45:05;;;;;;;11.87;11.57;;;;;;;;;;5357571;26;21338;-70
2024/04/09 00:47:34;;;;;;;12.07;11.77;;;;;;;;;;5360809;26;21458;-69
2024/04/09 00:50:00;;;;;;;12.00;11.70;;;;;;;;;;5356165;26;21292;-68
2024/04/09 00:52:29;;;;;;;12.30;12.00;;;;;;;;;;5359084;26;20486;-70
2024/04/09 00:54:57;;;;;;;12.43;12.13;;;;;;;;;;5357638;26;20474;-68
2024/04/09 00:57:29;;;;;;;12.70;12.37;;;;;;;;;;5376963;26;20829;-69
2024/04/09 00:59:56;;;;;;;12.50;12.20;;;;;;;;;;5387077;26;20460;-69
2024/04/09 01:02:25;;;;;;;12.20;11.90;;;;;;;;;;5395489;26;20528;-69
2024/04/09 01:04:53;;;;;;;12.03;11.73;;;;;;;;;;5381306;26;20459;-69
2024/04/09 01:07:23;;;;;;;12.30;12.00;;;;;;;;;;5387867;26;20573;-69
2024/04/09 01:09:49;;;;;;;11.83;11.53;;;;;;;;;;5400727;26;20602;-68
2024/04/09 01:12:18;;;;;;;11.83;11.53;;;;;;;;;;5402863;26;20481;-69
2024/04/09 01:14:47;;;;;;;11.30;11.00;;;;;;;;;;5400822;26;20563;-70
2024/04/09 01:17:16;;;;;;;11.20;10.90;;;;;;;;;;5411275;26;20589;-69
2024/04/09 01:19:42;;;;;;;11.30;11.00;;;;;;;;;;5408750;26;20855;-69
2024/04/09 01:22:11;;;;;;;11.10;10.80;;;;;;;;;;5403046;26;20526;-69
2024/04/09 01:24:41;;;;;;;11.43;11.13;;;;;;;;;;5404647;26;20950;-69
2024/04/09 01:27:14;;;;;;;10.67;10.47;;;;;;;;;;5394931;26;20592;-69
2024/04/09 01:29:41;;;;;;;11.10;10.80;;;;;;;;;;5394422;26;20524;-68
2024/04/09 01:32:10;;;;;;;10.90;10.60;;;;;;;;;;5410161;26;20499;-69
2024/04/09 01:34:36;;;;;;;10.43;10.23;;;;;;;;;;5410697;26;20471;-69
2024/04/09 01:37:11;;;;;;;10.17;9.97;;;;;;;;;;5403115;26;20481;-69
2024/04/09 01:39:40;;;;;;;10.40;10.20;;;;;;;;;;5398240;26;21095;-69
2024/04/09 01:42:11;;;;;;;10.07;9.87;;;;;;;;;;5410568;26;20481;-68
2024/04/09 01:44:37;;;;;;;9.53;9.33;;;;;;;;;;5404702;26;20503;-69
2024/04/09 01:47:08;;;;;;;9.30;9.10;;;;;;;;;;5400739;26;20577;-68
2024/04/09 01:49:36;;;;;;;9.37;9.17;;;;;;;;;;5404254;26;20504;-68
2024/04/09 01:52:06;;;;;;;9.53;9.33;;;;;;;;;;5403795;26;20479;-69
2024/04/09 01:54:33;;;;;;;9.50;9.30;;;;;;;;;;5397851;26;20462;-69
2024/04/09 01:57:05;;;;;;;9.50;9.30;;;;;;;;;;5403338;26;20465;-70
2024/04/09 01:59:31;;;;;;;8.43;8.33;;;;;;;;;;5403034;26;20477;-68
2024/04/09 02:02:00;;;;;;;9.40;9.20;;;;;;;;;;5406289;26;20468;-69
2024/04/09 02:04:27;;;;;;;8.77;8.67;;;;;;;;;;5403042;26;20610;-68
2024/04/09 02:06:56;;;;;;;8.10;8.00;;;;;;;;;;5398689;26;20528;-68
2024/04/09 02:09:25;;;;;;;7.77;7.67;;;;;;;;;;5394410;26;20547;-68
2024/04/09 02:11:54;;;;;;;8.00;7.90;;;;;;;;;;5407100;26;20472;-70
2024/04/09 02:14:23;;;;;;;8.20;8.10;;;;;;;;;;5397195;26;20622;-68
2024/04/09 02:16:51;;;;;;;8.57;8.47;;;;;;;;;;5410262;26;20491;-69
2024/04/09 02:19:18;;;;;;;8.73;8.63;;;;;;;;;;5384033;26;20495;-69
2024/04/09 02:21:48;;;;;;;8.80;8.70;;;;;;;;;;5396704;26;20519;-69
2024/04/09 02:24:14;;;;;;;8.20;8.10;;;;;;;;;;5377035;26;20568;-69
2024/04/09 02:26:44;;;;;;;8.53;8.43;;;;;;;;;;5391297;26;20535;-69
2024/04/09 02:29:11;;;;;;;8.90;8.70;;;;;;;;;;5379724;26;21152;-69
2024/04/09 02:31:43;;;;;;;9.37;9.17;;;;;;;;;;5401180;26;20926;-70
2024/04/09 02:34:10;;;;;;;9.77;9.57;;;;;;;;;;5406942;26;21048;-68
2024/04/09 02:36:40;;;;;;;9.90;9.70;;;;;;;;;;5394727;26;20543;-69
2024/04/09 02:39:08;;;;;;;10.27;10.07;;;;;;;;;;5400849;26;20483;-70
2024/04/09 02:41:39;;;;;;;10.17;9.97;;;;;;;;;;5396794;26;20488;-69
2024/04/09 02:44:05;;;;;;;10.50;10.30;;;;;;;;;;5397726;26;20486;-69
2024/04/09 02:46:34;;;;;;;10.33;10.13;;;;;;;;;;5392271;26;20485;-69
2024/04/09 02:49:03;;;;;;;10.77;10.50;;;;;;;;;;5393839;26;21120;-69
2024/04/09 02:51:33;;;;;;;10.93;10.63;;;;;;;;;;5405403;26;20487;-70
2024/04/09 02:53:59;;;;;;;11.20;10.90;;;;;;;;;;5397031;26;20564;-70
2024/04/09 02:56:28;;;;;;;11.40;11.10;;;;;;;;;;5403168;26;20536;-70
2024/04/09 02:58:54;;;;;;;10.70;10.50;;;;;;;;;;5404878;26;21058;-68
2024/04/09 03:01:23;;;;;;;10.73;10.53;;;;;;;;;;5389060;26;20944;-69
2024/04/09 03:03:50;;;;;;;11.00;10.70;;;;;;;;;;5395290;26;20486;-69
2024/04/09 03:06:22;;;;;;;11.00;10.70;;;;;;;;;;5404268;26;20481;-69
2024/04/09 03:08:50;;;;;;;11.07;10.77;;;;;;;;;;5409171;26;20539;-70
2024/04/09 03:11:19;;;;;;;11.13;10.83;;;;;;;;;;5390241;26;21061;-70
2024/04/09 03:13:49;;;;;;;11.50;11.20;;;;;;;;;;5407628;26;21036;-69
2024/04/09 03:16:19;;;;;;;11.40;11.10;;;;;;;;;;5394907;26;20658;-69
2024/04/09 03:18:46;;;;;;;11.20;10.90;;;;;;;;;;5391892;26;20858;-70
2024/04/09 03:21:15;;;;;;;11.40;11.10;;;;;;;;;;5409571;26;20967;-70
2024/04/09 03:23:45;;;;;;;11.30;11.00;;;;;;;;;;5401048;26;20934;-69
2024/04/09 03:26:14;;;;;;;10.73;10.53;;;;;;;;;;5402776;26;20472;-69
2024/04/09 03:28:41;;;;;;;11.50;11.20;;;;;;;;;;5393208;26;20596;-69
2024/04/09 03:31:10;;;;;;;11.40;11.10;;;;;;;;;;5402206;26;20485;-69
2024/04/09 03:33:36;;;;;;;11.17;10.87;;;;;;;;;;5412150;26;20597;-69
2024/04/09 03:36:07;;;;;;;10.40;10.20;;;;;;;;;;5404737;26;20494;-69
2024/04/09 03:38:37;;;;;;;11.60;11.30;;;;;;;;;;5396575;26;20746;-69
2024/04/09 03:41:09;;;;;;;15.60;14.97;;;;;;;;;;5399181;26;20817;-68
2024/04/09 03:43:38;;;;;;;19.20;18.10;;;;;;;;;;5408241;26;20880;-69
2024/04/09 03:46:06;;;;;;;19.47;18.17;;;;;;;;;;5408622;26;20564;-68
2024/04/09 03:48:34;;;;;;;20.53;19.03;;;;;;;;;;5408172;26;20595;-69
2024/04/09 03:51:01;;;;;;;21.30;19.80;;;;;;;;;;5401818;26;20533;-66
2024/04/09 03:53:30;;;;;;;20.73;19.27;;;;;;;;;;5412930;26;20800;-68
2024/04/09 03:55:56;;;;;;;20.67;19.17;;;;;;;;;;5411193;26;20605;-68
2024/04/09 03:58:31;;;;;;;20.30;18.90;;;;;;;;;;5401824;26;20469;-67
2024/04/09 04:01:00;;;;;;;20.63;19.23;;;;;;;;;;5400951;26;20484;-67
2024/04/09 04:03:27;;;;;;;20.63;19.23;;;;;;;;;;5403069;26;20488;-67
2024/04/09 04:05:57;;;;;;;20.27;18.97;;;;;;;;;;5383599;26;20906;-67
2024/04/09 04:08:24;;;;;;;20.93;19.63;;;;;;;;;;5400206;26;20482;-68
2024/04/09 04:10:56;;;;;;;20.37;19.07;;;;;;;;;;5405897;26;20542;-69
2024/04/09 04:13:26;;;;;;;20.73;19.53;;;;;;;;;;5391557;26;20886;-70
2024/04/09 04:16:03;;;;;;;20.90;19.70;;;;;;;;;;5388853;26;20516;-70
2024/04/09 04:18:29;;;;;;;20.73;19.57;;;;;;;;;;5406539;26;20900;-69
2024/04/09 04:20:58;;;;;;;20.90;19.77;;;;;;;;;;5396494;26;20470;-69
2024/04/09 04:23:25;;;;;;;21.73;20.53;;;;;;;;;;5404608;26;20474;-69
2024/04/09 04:25:58;;;;;;;21.50;20.30;;;;;;;;;;5389175;26;20572;-68
2024/04/09 04:28:27;;;;;;;22.27;21.07;;;;;;;;;;5389481;26;21016;-69
2024/04/09 04:30:56;;;;;;;21.67;20.57;;;;;;;;;;5409838;26;20476;-68
2024/04/09 04:33:23;;;;;;;21.43;20.33;;;;;;;;;;5400477;26;20540;-68
2024/04/09 04:35:52;;;;;;;21.40;20.30;;;;;;;;;;5396102;26;20465;-70
2024/04/09 04:38:20;;;;;;;21.50;20.40;;;;;;;;;;5392153;26;20480;-68
2024/04/09 04:40:49;;;;;;;21.30;20.30;;;;;;;;;;5399909;26;20538;-68
2024/04/09 04:43:16;;;;;;;21.27;20.27;;;;;;;;;;5409598;26;20583;-68
2024/04/09 04:45:49;;;;;;;21.93;20.93;;;;;;;;;;5397458;26;21018;-68
2024/04/09 04:48:16;;;;;;;21.70;20.70;;;;;;;;;;5403575;26;20469;-68
2024/04/09 04:50:45;;;;;;;22.30;21.30;;;;;;;;;;5385333;26;20524;-68
2024/04/09 04:53:12;;;;;;;21.63;20.63;;;;;;;;;;5407523;26;20480;-69
2024/04/09 04:55:41;;;;;;;21.27;20.27;;;;;;;;;;5396795;26;20470;-70
2024/04/09 04:58:07;;;;;;;23.40;22.30;;;;;;;;;;5397146;26;20494;-70
2024/04/09 05:00:39;;;;;;;21.23;20.23;;;;;;;;;;5386124;26;20608;-68
2024/04/09 05:03:09;;;;;;;21.20;20.20;;;;;;;;;;5401616;26;20499;-70
2024/04/09 05:05:38;;;;;;;21.43;20.43;;;;;;;;;;5407853;26;20489;-70
2024/04/09 05:08:05;;;;;;;22.30;21.20;;;;;;;;;;5390359;26;20621;-69
2024/04/09 05:10:34;;;;;;;20.83;19.83;;;;;;;;;;5393395;26;20475;-68
2024/04/09 05:13:00;;;;;;;20.80;19.80;;;;;;;;;;5408780;26;20533;-68
2024/04/09 05:15:30;;;;;;;21.43;20.40;;;;;;;;;;5402195;26;20554;-69
2024/04/09 05:17:56;;;;;;;20.00;19.00;;;;;;;;;;5394835;26;20476;-69
2024/04/09 05:20:29;;;;;;;20.80;19.70;;;;;;;;;;5396279;26;21030;-68
2024/04/09 05:22:56;;;;;;;21.87;20.77;;;;;;;;;;5401056;26;20463;-69
2024/04/09 05:25:26;;;;;;;22.53;21.33;;;;;;;;;;5409339;26;20483;-69
2024/04/09 05:27:53;;;;;;;22.33;21.13;;;;;;;;;;5396420;26;20480;-68
2024/04/09 05:30:22;;;;;;;22.47;21.27;;;;;;;;;;5396141;26;20491;-69
2024/04/09 05:32:49;;;;;;;22.37;21.27;;;;;;;;;;5388960;26;20863;-69
2024/04/09 05:35:19;;;;;;;21.97;20.87;;;;;;;;;;5402963;26;20476;-68
2024/04/09 05:37:48;;;;;;;23.03;21.83;;;;;;;;;;5400450;26;20483;-69
2024/04/09 05:40:17;;;;;;;22.23;21.03;;;;;;;;;;5394867;26;20563;-69
2024/04/09 05:42:44;;;;;;;21.80;20.70;;;;;;;;;;5406330;26;20529;-70
2024/04/09 05:45:13;;;;;;;21.63;20.53;;;;;;;;;;5404729;26;20593;-69
2024/04/09 05:47:40;;;;;;;21.53;20.43;;;;;;;;;;5397046;26;20628;-70
2024/04/09 05:50:09;;;;;;;20.57;19.47;;;;;;;;;;5412104;26;20585;-70
2024/04/09 05:52:36;;;;;;;20.07;18.90;;;;;;;;;;5399509;26;20531;-70
2024/04/09 05:55:08;;;;;;;19.50;18.50;;;;;;;;;;5410501;26;20470;-68
2024/04/09 05:57:36;;;;;;;20.03;18.93;;;;;;;;;;5404885;26;20543;-70
2024/04/09 06:00:07;;;;;;;19.60;18.50;;;;;;;;;;5400987;26;21007;-68
2024/04/09 06:02:34;;;;;;;20.13;19.03;;;;;;;;;;5411150;26;21051;-68
2024/04/09 06:05:03;;;;;;;20.93;19.83;;;;;;;;;;5410789;26;20470;-68
2024/04/09 06:07:30;;;;;;;20.53;19.47;;;;;;;;;;5411601;26;20598;-69
2024/04/09 06:09:59;;;;;;;21.73;20.63;;;;;;;;;;5410524;26;20612;-69
2024/04/09 06:12:32;;;;;;;21.93;20.80;;;;;;;;;;5402844;26;21146;-68
2024/04/09 06:14:59;;;;;;;21.63;20.53;;;;;;;;;;5407250;26;20598;-70
2024/04/09 06:17:28;;;;;;;21.70;20.60;;;;;;;;;;5411110;26;20719;-68
2024/04/09 06:19:57;;;;;;;20.17;19.17;;;;;;;;;;5394033;26;20482;-68
2024/04/09 06:22:26;;;;;;;21.20;20.00;;;;;;;;;;5405948;26;20882;-70
2024/04/09 06:24:53;;;;;;;19.77;18.67;;;;;;;;;;5410461;26;20499;-70
2024/04/09 06:27:22;;;;;;;19.57;18.53;;;;;;;;;;5406281;26;20589;-68
2024/04/09 06:29:51;;;;;;;19.93;18.83;;;;;;;;;;5391605;26;20537;-69
2024/04/09 06:32:19;;;;;;;20.30;19.20;;;;;;;;;;5410172;26;21266;-68
2024/04/09 06:34:46;;;;;;;19.17;18.17;;;;;;;;;;5403211;26;20642;-69
2024/04/09 06:37:14;;;;;;;18.97;17.97;;;;;;;;;;5409253;26;20461;-68
2024/04/09 06:39:41;;;;;;;18.90;17.90;;;;;;;;;;5396440;26;21079;-69
2024/04/09 06:42:11;;;;;;;18.97;17.97;;;;;;;;;;5406333;26;20479;-69
2024/04/09 06:44:37;;;;;;;19.60;18.50;;;;;;;;;;5400139;26;20549;-70
2024/04/09 06:47:09;;;;;;;18.83;17.73;;;;;;;;;;5397916;26;20749;-70
2024/04/09 06:49:35;;;;;;;18.93;17.83;;;;;;;;;;5397086;26;20520;-68
2024/04/09 06:52:06;;;;;;;19.77;18.57;;;;;;;;;;5403964;26;20479;-69
2024/04/09 06:54:32;;;;;;;18.53;17.53;;;;;;;;;;5392788;26;20621;-69
2024/04/09 06:57:01;;;;;;;19.23;18.03;;;;;;;;;;5411816;26;20469;-68
2024/04/09 06:59:28;;;;;;;19.27;18.17;;;;;;;;;;5414091;26;20596;-69
2024/04/09 07:01:57;;;;;;;18.87;17.77;;;;;;;;;;5413797;26;20477;-69
2024/04/09 07:04:25;;;;;;;19.20;18.10;;;;;;;;;;5404066;26;20480;-70
2024/04/09 07:06:55;;;;;;;18.60;17.60;;;;;;;;;;5403394;26;20479;-68
2024/04/09 07:09:22;;;;;;;18.80;17.80;;;;;;;;;;5395601;26;21016;-68
2024/04/09 07:11:51;;;;;;;18.67;17.67;;;;;;;;;;5402425;26;21047;-69
2024/04/09 07:14:17;;;;;;;18.47;17.47;;;;;;;;;;5413150;26;20530;-69
2024/04/09 07:16:46;;;;;;;18.80;17.80;;;;;;;;;;5411093;26;21030;-68
2024/04/09 07:19:13;;;;;;;18.40;17.43;;;;;;;;;;5407485;26;21011;-68
2024/04/09 07:21:44;;;;;;;17.43;16.53;;;;;;;;;;5413965;26;20518;-69
2024/04/09 07:24:11;;;;;;;17.80;16.90;;;;;;;;;;5395210;26;20474;-68
2024/04/09 07:26:39;;;;;;;17.50;16.60;;;;;;;;;;5395467;26;20792;-68
2024/04/09 07:29:07;;;;;;;17.47;16.57;;;;;;;;;;5401195;26;20521;-68
2024/04/09 07:31:37;;;;;;;17.13;16.23;;;;;;;;;;5412648;26;20536;-68
2024/04/09 07:34:04;;;;;;;16.50;15.60;;;;;;;;;;5406455;26;20486;-67
2024/04/09 07:36:32;;;;;;;16.77;15.87;;;;;;;;;;5413025;26;20458;-68
2024/04/09 07:39:03;;;;;;;16.70;15.80;;;;;;;;;;5412362;26;21189;-68
2024/04/09 07:41:32;;;;;;;16.60;15.80;;;;;;;;;;5396435;26;20536;-69
2024/04/09 07:43:58;;;;;;;16.77;15.87;;;;;;;;;;5403508;26;20486;-68
2024/04/09 07:46:27;;;;;;;16.77;15.90;;;;;;;;;;5411255;26;20551;-68
2024/04/09 07:48:55;;;;;;;17.33;16.43;;;;;;;;;;5409837;26;20534;-68
2024/04/09 07:51:23;;;;;;;17.60;16.70;;;;;;;;;;5394232;26;21024;-69
2024/04/09 07:53:50;;;;;;;17.23;16.33;;;;;;;;;;5407174;26;20469;-68
2024/04/09 07:56:22;;;;;;;17.07;16.27;;;;;;;;;;5412183;26;20472;-69
2024/04/09 07:58:48;;;;;;;17.10;16.30;;;;;;;;;;5402042;26;20819;-68
2024/04/09 08:01:17;;;;;;;16.37;15.67;;;;;;;;;;5394779;26;21023;-70
2024/04/09 08:03:43;;;;;;;16.47;15.77;;;;;;;;;;5411734;26;20495;-68
2024/04/09 08:06:13;;;;;;;16.20;15.50;;;;;;;;;;5412912;26;20471;-68
2024/04/09 08:08:39;;;;;;;15.67;15.07;;;;;;;;;;5401669;26;20531;-68
2024/04/09 08:11:10;;;;;;;15.30;14.70;;;;;;;;;;5400805;26;20469;-68
2024/04/09 08:13:39;;;;;;;15.07;14.47;;;;;;;;;;5411741;26;20476;-68
2024/04/09 08:16:10;;;;;;;15.23;14.63;;;;;;;;;;5403971;26;20924;-70
2024/04/09 08:18:37;;;;;;;15.27;14.67;;;;;;;;;;5408295;26;20670;-70
2024/04/09 08:21:06;;;;;;;15.77;15.17;;;;;;;;;;5411816;26;20522;-70
2024/04/09 08:23:32;;;;;;;15.77;15.17;;;;;;;;;;5412139;26;20473;-69
2024/04/09 08:26:01;;;;;;;15.40;14.80;;;;;;;;;;5400524;26;20622;-70
2024/04/09 08:28:27;;;;;;;15.70;15.10;;;;;;;;;;5402834;26;20528;-69
2024/04/09 08:31:00;;;;;;;15.80;15.20;;;;;;;;;;5404282;26;20535;-69
2024/04/09 08:33:26;;;;;;;16.40;15.80;;;;;;;;;;5407462;26;20490;-69
2024/04/09 08:35:55;;;;;;;15.80;15.20;;;;;;;;;;5406303;26;20472;-69
2024/04/09 08:38:22;;;;;;;16.20;15.50;;;;;;;;;;5401390;26;20539;-69
2024/04/09 08:40:52;;;;;;;15.87;15.27;;;;;;;;;;5391879;26;21064;-70
2024/04/09 08:43:21;;;;;;;15.90;15.30;;;;;;;;;;5393669;26;20908;-69
2024/04/09 08:45:50;;;;;;;16.40;15.70;;;;;;;;;;5408444;26;20767;-70
2024/04/09 08:48:20;;;;;;;16.53;15.83;;;;;;;;;;5402718;26;20575;-70
2024/04/09 08:50:52;;;;;;;16.13;15.50;;;;;;;;;;5400328;26;21024;-70
2024/04/09 08:53:23;;;;;;;16.20;15.60;;;;;;;;;;5411857;26;20462;-69
2024/04/09 08:55:52;;;;;;;16.70;16.00;;;;;;;;;;5407082;26;21135;-69
2024/04/09 08:58:20;;;;;;;15.93;15.33;;;;;;;;;;5388468;26;20547;-70
2024/04/09 09:00:46;;;;;;;15.40;14.80;;;;;;;;;;5398801;26;21124;-70
2024/04/09 09:03:16;;;;;;;15.87;15.27;;;;;;;;;;5404002;26;20493;-69
2024/04/09 09:05:46;;;;;;;14.90;14.40;;;;;;;;;;5411760;26;20526;-70
2024/04/09 09:08:15;;;;;;;15.07;14.57;;;;;;;;;;5395696;26;20480;-70
2024/04/09 09:10:42;;;;;;;15.30;14.70;;;;;;;;;;5411535;26;20596;-71
2024/04/09 09:13:11;;;;;;;15.53;14.93;;;;;;;;;;5410962;26;20579;-70
2024/04/09 09:15:37;;;;;;;15.00;14.50;;;;;;;;;;5399823;26;20559;-70
2024/04/09 09:18:06;;;;;;;15.47;14.87;;;;;;;;;;5394854;26;20482;-70
2024/04/09 09:20:33;;;;;;;16.10;15.50;;;;;;;;;;5384356;26;20477;-70
2024/04/09 09:23:04;;;;;;;15.87;15.27;;;;;;;;;;5400719;26;20556;-70
2024/04/09 09:25:32;;;;;;;15.53;14.93;;;;;;;;;;5398446;26;21077;-70
2024/04/09 09:28:08;;;;;;;15.20;14.70;;;;;;;;;;5397424;26;20600;-71
2024/04/09 09:30:39;;;;;;;15.20;14.70;;;;;;;;;;5401453;26;20471;-69
2024/04/09 09:33:13;;;;;;;15.67;15.07;;;;;;;;;;5396353;26;21194;-71
2024/04/09 09:35:42;;;;;;;14.90;14.40;;;;;;;;;;5397198;26;20556;-70
2024/04/09 09:38:14;;;;;;;15.50;14.90;;;;;;;;;;5406160;26;20941;-70
2024/04/09 09:40:42;;;;;;;15.17;14.67;;;;;;;;;;5400905;26;20618;-70
2024/04/09 09:43:11;;;;;;;15.33;14.83;;;;;;;;;;5392624;26;20581;-70
2024/04/09 09:45:39;;;;;;;15.03;14.53;;;;;;;;;;5384330;26;20548;-70
2024/04/09 09:48:10;;;;;;;15.40;14.80;;;;;;;;;;5375982;26;20536;-70
2024/04/09 09:50:37;;;;;;;15.20;14.70;;;;;;;;;;5380680;26;21000;-68
2024/04/09 09:53:07;;;;;;;15.20;14.70;;;;;;;;;;5388259;26;20473;-67
2024/04/09 09:55:36;;;;;;;15.40;14.80;;;;;;;;;;5388447;26;21019;-69
2024/04/09 09:58:06;;;;;;;15.63;15.07;;;;;;;;;;5371891;26;20887;-68
2024/04/09 10:00:34;;;;;;;15.33;14.83;;;;;;;;;;5384106;26;20474;-68
2024/04/09 10:03:03;;;;;;;15.67;15.07;;;;;;;;;;5388823;26;20485;-68
2024/04/09 10:05:31;;;;;;;15.40;14.83;;;;;;;;;;5385804;26;20542;-67
2024/04/09 10:08:00;;;;;;;16.00;15.40;;;;;;;;;;5375679;26;20825;-68
2024/04/09 10:10:26;;;;;;;15.60;15.00;;;;;;;;;;5388072;26;20487;-69
2024/04/09 10:12:58;;;;;;;15.43;14.83;;;;;;;;;;5385608;26;20522;-68
2024/04/09 10:15:28;;;;;;;15.60;15.00;;;;;;;;;;5390047;26;20569;-68
2024/04/09 10:18:04;;;;;;;16.27;15.67;;;;;;;;;;5385192;26;20531;-68
2024/04/09 10:20:30;;;;;;;15.97;15.37;;;;;;;;;;5385791;26;21061;-68
2024/04/09 10:23:01;;;;;;;16.50;15.90;;;;;;;;;;5381314;26;20517;-69
2024/04/09 10:25:32;;;;;;;16.23;15.63;;;;;;;;;;5381655;26;21041;-69
2024/04/09 10:28:10;;;;;;;16.23;15.63;;;;;;;;;;5387526;26;20529;-69
2024/04/09 10:30:37;;;;;;;16.37;15.77;;;;;;;;;;5382364;26;20493;-69
2024/04/09 10:33:07;;;;;;;16.83;16.13;;;;;;;;;;5381397;26;20478;-70
2024/04/09 10:35:33;;;;;;;16.70;16.10;;;;;;;;;;5390972;26;20469;-71
2024/04/09 10:38:05;;;;;;;16.10;15.50;;;;;;;;;;5386239;26;20478;-70
2024/04/09 10:40:33;;;;;;;16.70;16.07;;;;;;;;;;5383189;26;20484;-69
2024/04/09 10:43:02;;;;;;;15.80;15.20;;;;;;;;;;5384355;26;21041;-69
2024/04/09 10:45:31;;;;;;;16.40;15.80;;;;;;;;;;5386757;26;20531;-69
2024/04/09 10:48:01;;;;;;;15.80;15.20;;;;;;;;;;5392666;26;21081;-69
2024/04/09 10:50:27;;;;;;;16.00;15.40;;;;;;;;;;5383979;26;21031;-69
2024/04/09 10:52:57;;;;;;;16.03;15.43;;;;;;;;;;5377218;26;20465;-70
2024/04/09 10:55:23;;;;;;;16.20;15.60;;;;;;;;;;5387205;26;20475;-70
2024/04/09 10:57:53;;;;;;;16.47;15.87;;;;;;;;;;5384954;26;20534;-72
2024/04/09 11:00:20;;;;;;;16.50;15.90;;;;;;;;;;5388389;26;20530;-70
2024/04/09 11:02:52;;;;;;;16.00;15.40;;;;;;;;;;5384564;26;20952;-72
2024/04/09 11:05:18;;;;;;;16.80;16.13;;;;;;;;;;5381015;26;20530;-70
2024/04/09 11:07:48;;;;;;;16.70;16.10;;;;;;;;;;5388094;26;22746;-71
2024/04/09 11:10:15;;;;;;;16.30;15.70;;;;;;;;;;5381869;26;20495;-69
2024/04/09 11:12:47;;;;;;;17.20;16.50;;;;;;;;;;5386465;26;20603;-70
2024/04/09 11:15:15;;;;;;;16.50;15.90;;;;;;;;;;5389931;26;20599;-69
2024/04/09 11:17:44;;;;;;;17.10;16.40;;;;;;;;;;5382304;26;20528;-69
2024/04/09 11:20:14;;;;;;;16.67;16.07;;;;;;;;;;5385643;26;20497;-69
2024/04/09 11:22:46;;;;;;;17.23;16.53;;;;;;;;;;5386064;26;20486;-69
2024/04/09 11:25:13;;;;;;;16.83;16.23;;;;;;;;;;5389821;26;20628;-70
2024/04/09 11:27:43;;;;;;;16.93;16.33;;;;;;;;;;5392237;26;21012;-70
2024/04/09 11:30:11;;;;;;;16.70;16.10;;;;;;;;;;5379249;26;20575;-70
2024/04/09 11:32:40;;;;;;;16.40;15.80;;;;;;;;;;5381760;26;20546;-70
2024/04/09 11:35:18;;;;;;;16.70;16.10;;;;;;;;;;5387024;26;20564;-71
2024/04/09 11:37:51;;;;;;;16.50;15.90;;;;;;;;;;5377946;26;20545;-71
2024/04/09 11:40:17;;;;;;;16.00;15.40;;;;;;;;;;5383901;26;20540;-69
2024/04/09 11:42:46;;;;;;;16.70;16.10;;;;;;;;;;5388417;26;20484;-70
2024/04/09 11:45:18;;;;;;;16.83;16.23;;;;;;;;;;5384255;26;20912;-69
2024/04/09 11:47:47;;;;;;;16.10;15.50;;;;;;;;;;5388188;26;20473;-71
2024/04/09 11:50:14;;;;;;;16.70;16.10;;;;;;;;;;5390571;26;20474;-70
2024/04/09 11:52:45;;;;;;;16.90;16.30;;;;;;;;;;5391933;26;20567;-69
2024/04/09 11:55:12;;;;;;;16.30;15.70;;;;;;;;;;5390463;26;20489;-70
2024/04/09 11:57:41;;;;;;;16.40;15.80;;;;;;;;;;5387305;26;20482;-69
2024/04/09 12:00:12;;;;;;;16.23;15.63;;;;;;;;;;5390317;26;20515;-70
2024/04/09 12:02:42;;;;;;;16.60;16.00;;;;;;;;;;5385306;26;20484;-70
2024/04/09 12:05:10;;;;;;;16.50;15.90;;;;;;;;;;5386570;26;20486;-69
2024/04/09 12:07:39;;;;;;;17.10;16.40;;;;;;;;;;5386507;26;20560;-70
2024/04/09 12:10:10;;;;;;;16.70;16.10;;;;;;;;;;5390344;26;20581;-69
2024/04/09 12:12:39;;;;;;;16.70;16.10;;;;;;;;;;5389416;26;20504;-68
2024/04/09 12:15:07;;;;;;;17.40;16.70;;;;;;;;;;5382465;26;20492;-68
2024/04/09 12:17:36;;;;;;;16.27;15.67;;;;;;;;;;5388622;26;20540;-68
2024/04/09 12:20:03;;;;;;;16.70;16.10;;;;;;;;;;5382996;26;20492;-70
2024/04/09 12:22:33;;;;;;;16.33;15.73;;;;;;;;;;5391723;26;20814;-68
2024/04/09 12:24:59;;;;;;;16.30;15.70;;;;;;;;;;5391488;26;20542;-69
2024/04/09 12:27:30;;;;;;;16.53;15.93;;;;;;;;;;5386821;26;20541;-69
2024/04/09 12:29:57;;;;;;;16.13;15.53;;;;;;;;;;5385826;26;20470;-69
2024/04/09 12:32:26;;;;;;;16.33;15.73;;;;;;;;;;5383750;26;20495;-70
2024/04/09 12:34:53;;;;;;;16.13;15.53;;;;;;;;;;5385886;26;20534;-69
2024/04/09 12:37:22;;;;;;;16.53;15.93;;;;;;;;;;5389072;26;20929;-68
2024/04/09 12:39:48;;;;;;;15.90;15.30;;;;;;;;;;5381934;26;20493;-68
2024/04/09 12:42:17;;;;;;;16.43;15.83;;;;;;;;;;5383030;26;20919;-69
2024/04/09 12:44:46;;;;;;;16.20;15.60;;;;;;;;;;5380679;26;20493;-70
2024/04/09 12:47:15;;;;;;;16.20;15.60;;;;;;;;;;5390742;26;20612;-68
2024/04/09 12:49:41;;;;;;;16.17;15.57;;;;;;;;;;5391876;26;20464;-68
2024/04/09 12:52:10;;;;;;;16.60;16.00;;;;;;;;;;5388334;26;21918;-68
2024/04/09 12:54:36;;;;;;;16.63;16.03;;;;;;;;;;5390616;26;20482;-70
2024/04/09 12:57:06;;;;;;;16.10;15.50;;;;;;;;;;5381148;26;20534;-68
2024/04/09 12:59:33;;;;;;;15.90;15.30;;;;;;;;;;5388638;26;20485;-67
2024/04/09 13:02:06;;;;;;;16.40;15.80;;;;;;;;;;5389891;26;20553;-68
2024/04/09 13:04:33;;;;;;;17.27;16.57;;;;;;;;;;5391120;26;20546;-70
2024/04/09 13:07:03;;;;;;;16.47;15.87;;;;;;;;;;5388319;26;20543;-68
2024/04/09 13:09:29;;;;;;;16.63;16.03;;;;;;;;;;5386102;26;20463;-68
2024/04/09 13:11:58;;;;;;;16.30;15.70;;;;;;;;;;5382455;26;20481;-69
2024/04/09 13:14:25;;;;;;;16.50;15.90;;;;;;;;;;5388309;26;20639;-68
2024/04/09 13:16:54;;;;;;;16.67;16.07;;;;;;;;;;5387687;26;20533;-67
2024/04/09 13:19:23;;;;;;;16.27;15.67;;;;;;;;;;5382183;26;20557;-65
2024/04/09 13:21:52;;;;;;;16.33;15.73;;;;;;;;;;5389947;26;20481;-67
2024/04/09 13:24:19;;;;;;;16.40;15.80;;;;;;;;;;5388632;26;20545;-66
2024/04/09 13:26:47;;;;;;;16.40;15.80;;;;;;;;;;5387047;26;20539;-67
2024/04/09 13:29:14;;;;;;;16.00;15.40;;;;;;;;;;5391054;26;20500;-66
2024/04/09 13:31:43;;;;;;;17.10;16.50;;;;;;;;;;5381649;26;20486;-67
2024/04/09 13:34:10;;;;;;;16.43;15.83;;;;;;;;;;5388621;26;20473;-66
2024/04/09 13:36:42;;;;;;;15.90;15.30;;;;;;;;;;5388036;26;20861;-67
2024/04/09 13:39:09;;;;;;;16.20;15.60;;;;;;;;;;5388250;26;20482;-67
2024/04/09 13:41:38;;;;;;;16.03;15.43;;;;;;;;;;5390311;26;20476;-67
2024/04/09 13:44:05;;;;;;;16.97;16.27;;;;;;;;;;5386063;26;20477;-68
2024/04/09 13:46:34;;;;;;;16.20;15.60;;;;;;;;;;5388408;26;20484;-69
2024/04/09 13:49:00;;;;;;;15.97;15.37;;;;;;;;;;5384727;26;21062;-66
2024/04/09 13:51:29;;;;;;;16.13;15.53;;;;;;;;;;5390255;26;20495;-69
2024/04/09 13:53:58;;;;;;;16.40;15.80;;;;;;;;;;5387214;26;20474;-68
2024/04/09 13:56:27;;;;;;;15.90;15.30;;;;;;;;;;5386667;26;20609;-67
2024/04/09 13:58:53;;;;;;;16.40;15.80;;;;;;;;;;5385249;26;20873;-66
2024/04/09 14:01:22;;;;;;;16.40;15.80;;;;;;;;;;5387112;26;20477;-67
2024/04/09 14:03:49;;;;;;;16.17;15.57;;;;;;;;;;5391210;26;20992;-68
2024/04/09 14:06:18;;;;;;;15.60;15.10;;;;;;;;;;5386907;26;20521;-67
2024/04/09 14:08:45;;;;;;;15.57;15.07;;;;;;;;;;5386209;26;20477;-67
2024/04/09 14:11:16;;;;;;;15.33;14.83;;;;;;;;;;5389702;26;20545;-67
2024/04/09 14:13:44;;;;;;;15.77;15.17;;;;;;;;;;5382387;26;20474;-67
2024/04/09 14:16:14;;;;;;;15.30;14.80;;;;;;;;;;5389127;26;20523;-67
2024/04/09 14:18:40;;;;;;;15.80;15.20;;;;;;;;;;5386905;26;21156;-66
2024/04/09 14:21:13;;;;;;;14.90;14.40;;;;;;;;;;5384805;26;20599;-67
2024/04/09 14:23:39;;;;;;;15.27;14.77;;;;;;;;;;5384602;26;20840;-68
2024/04/09 14:26:08;;;;;;;15.27;14.77;;;;;;;;;;5390422;26;20481;-68